Bratislava, Slovakia

6:48 PM CEST on July 24, 2016 (GMT +0200)
M.R. Stefanik | | Change Station

Elev 433 ft 48.17 °N, 17.21 °E | Updated 18 minutes ago

Partly Cloudy
Partly Cloudy
84 °F
Feels Like 87 °F
N
4
Wind Variable Wind from North

Today
High -- | Low -- °F
--% Chance of Precip.
Yesterday
High -- | Low -- °F
Precip. -- in
Pressure 30.01 in
Visibility 6.2 miles
Clouds Few 4300 ft
Heat Index 87 °F
Dew Point 66 °F
Humidity 55%
Rainfall 0.00 in
Snow Depth Not available.
5:16 AM 8:37 PM
Waning Gibbous, 75% visible
METAR LZIB 241630Z 01003KT 320V040 9999 FEW043 29/19 Q1016 NOSIG
Pressure 30.01 in
Visibility 6.2 miles
Clouds Few 4300 ft
Heat Index 87 °F
Dew Point 66 °F
Humidity 55%
Rainfall 0.00 in
Snow Depth Not available.
5:16 AM 8:37 PM
Waning Gibbous, 75% visible
METAR LZIB 241630Z 01003KT 320V040 9999 FEW043 29/19 Q1016 NOSIG

10-Day Weather Forecast

×

Almanac

Astronomy

Jul. 24, 2016 Rise Set
Actual Time
Civil Twilight
Nautical Twilight
Astronomical Twilight
Moon
Length of Visible Light
Length of Day
Tomorrow will be .
, % of the Moon is Illuminated

Today's Extremes

Country Highs Country Lows

Community

WunderPhotos

Upload Photos

1,927,121 photos uploaded!

WunderBlog® & News

Nearby

Air Quality

  Air Quality AQ Index Pollutant
Not available.

Snow Depth

Station Depth Elevation

Earthquake Activity

City Distance Mag. Time & Date
Minimum magnitude displayed is 2.5.

Coastal Water Temperatures

Place Temperature

Stations

Nearby Weather Stations

Station Location Temp. Windchill Dew Point Humidity Wind Precip. Elev Updated Type